createdAt,value
2019-04-27T00:02:23.042Z,88.70
2019-04-27T00:04:58.768Z,88.81
2019-04-27T00:07:34.881Z,88.63
2019-04-27T00:10:11.450Z,88.37
2019-04-27T00:12:39.762Z,88.34
2019-04-27T00:15:09.705Z,88.20
2019-04-27T00:17:49.292Z,88.30
2019-04-27T00:20:22.322Z,88.31
2019-04-27T00:23:04.445Z,88.25
2019-04-27T00:25:32.880Z,88.24
2019-04-27T00:28:01.208Z,88.12
2019-04-27T00:30:29.861Z,88.13
2019-04-27T00:32:58.181Z,87.99
2019-04-27T00:35:28.147Z,88.13
2019-04-27T00:38:04.639Z,88.20
2019-04-27T00:40:34.589Z,88.33
2019-04-27T00:43:03.089Z,88.39
2019-04-27T00:45:31.459Z,88.52
2019-04-27T00:48:00.020Z,88.36
2019-04-27T00:50:28.768Z,88.18
2019-04-27T00:52:57.050Z,88.02
2019-04-27T00:55:25.361Z,87.83
2019-04-27T00:58:01.077Z,87.79
2019-04-27T01:00:33.963Z,87.75
2019-04-27T01:03:06.645Z,87.61
2019-04-27T01:05:34.962Z,87.63
2019-04-27T01:08:03.902Z,87.80
2019-04-27T01:10:33.470Z,87.80
2019-04-27T01:13:03.333Z,87.95
2019-04-27T01:15:33.826Z,88.08
2019-04-27T01:18:12.284Z,88.21
2019-04-27T01:20:32.595Z,88.25
2019-04-27T01:23:00.892Z,88.10
2019-04-27T01:25:30.835Z,88.01
2019-04-27T01:28:00.794Z,87.95
2019-04-27T01:30:30.985Z,87.94
2019-04-27T01:32:59.598Z,87.85
2019-04-27T01:35:28.842Z,87.84
2019-04-27T01:37:58.927Z,87.84
2019-04-27T01:40:27.316Z,87.88
2019-04-27T01:42:55.654Z,87.99
2019-04-27T01:45:24.235Z,88.10
2019-04-27T01:47:52.812Z,88.05
2019-04-27T01:50:21.166Z,88.16
2019-04-27T01:52:49.460Z,88.13
2019-04-27T01:55:18.874Z,88.03
2019-04-27T01:57:48.756Z,88.06
2019-04-27T02:00:30.859Z,88.04
2019-04-27T02:03:00.789Z,88.10
2019-04-27T02:05:42.940Z,87.95
2019-04-27T02:08:11.234Z,87.98
2019-04-27T02:10:39.724Z,87.96
2019-04-27T02:13:08.966Z,88.00
2019-04-27T02:15:37.366Z,88.03
2019-04-27T02:18:06.275Z,88.10
2019-04-27T02:20:34.583Z,88.14
2019-04-27T02:23:02.883Z,88.04
2019-04-27T02:25:31.429Z,87.73
2019-04-27T02:28:04.013Z,87.74
2019-04-27T02:30:36.667Z,87.75
2019-04-27T02:33:12.960Z,87.62
2019-04-27T02:35:42.155Z,87.73
2019-04-27T02:38:10.532Z,87.55
2019-04-27T02:40:50.243Z,87.68
2019-04-27T02:43:21.012Z,87.65
2019-04-27T02:45:50.350Z,87.33
2019-04-27T02:48:19.848Z,87.38
2019-04-27T02:50:50.348Z,87.50
2019-04-27T02:53:20.308Z,87.51
2019-04-27T02:55:49.981Z,87.33
2019-04-27T02:58:21.474Z,87.22
2019-04-27T03:00:50.166Z,87.52
2019-04-27T03:03:20.362Z,87.58
2019-04-27T03:05:50.283Z,87.61
2019-04-27T03:08:19.986Z,87.65
2019-04-27T03:10:50.326Z,87.76
2019-04-27T03:13:20.290Z,87.84
2019-04-27T03:15:50.140Z,87.65
2019-04-27T03:18:20.069Z,87.47
2019-04-27T03:20:52.464Z,87.54
2019-04-27T03:23:20.785Z,87.67
2019-04-27T03:26:06.015Z,87.54
2019-04-27T03:28:34.333Z,87.35
2019-04-27T03:31:03.136Z,87.34
2019-04-27T03:33:32.727Z,87.46
2019-04-27T03:36:02.996Z,87.50
2019-04-27T03:38:31.759Z,87.53
2019-04-27T03:41:00.752Z,87.70
2019-04-27T03:43:30.256Z,87.73
2019-04-27T03:46:00.451Z,87.60
2019-04-27T03:48:29.659Z,87.69
2019-04-27T03:51:02.795Z,87.78
2019-04-27T03:53:41.524Z,87.87
2019-04-27T03:56:20.174Z,87.98
2019-04-27T03:58:53.095Z,88.08
2019-04-27T04:01:21.788Z,88.23
2019-04-27T04:03:50.445Z,88.23
2019-04-27T04:06:19.420Z,88.02
2019-04-27T04:08:50.612Z,87.88
2019-04-27T04:11:20.260Z,87.85
2019-04-27T04:13:53.119Z,87.78
2019-04-27T04:16:23.066Z,87.80
2019-04-27T04:19:02.030Z,87.83
2019-04-27T04:21:30.504Z,87.69
2019-04-27T04:24:00.858Z,87.52
2019-04-27T04:26:31.947Z,87.26
2019-04-27T04:28:59.848Z,87.15
2019-04-27T04:31:32.587Z,87.05
2019-04-27T04:33:59.800Z,87.01
2019-04-27T04:36:30.170Z,86.90
2019-04-27T04:39:00.485Z,86.76
2019-04-27T04:41:43.693Z,86.99
2019-04-27T04:44:30.425Z,86.94
2019-04-27T04:47:03.031Z,86.60
2019-04-27T04:49:31.345Z,85.22
2019-04-27T04:51:59.744Z,83.87
2019-04-27T04:54:30.042Z,83.03
2019-04-27T04:56:59.478Z,82.44
2019-04-27T04:59:29.108Z,82.12
2019-04-27T05:02:00.236Z,81.77
2019-04-27T05:04:29.165Z,81.60
2019-04-27T05:06:59.177Z,81.27
2019-04-27T05:09:29.410Z,80.59
2019-04-27T05:11:58.763Z,80.03
2019-04-27T05:14:28.922Z,79.36
2019-04-27T05:16:59.029Z,78.79
2019-04-27T05:19:28.805Z,78.15
2019-04-27T05:21:59.165Z,76.94
2019-04-27T05:24:29.107Z,75.54
2019-04-27T05:26:58.889Z,73.21
2019-04-27T05:29:29.130Z,71.02
2019-04-27T05:31:59.224Z,68.85
2019-04-27T05:34:29.270Z,65.71
2019-04-27T05:36:59.327Z,63.85
2019-04-27T05:39:29.785Z,61.70
2019-04-27T05:41:59.710Z,62.14
2019-04-27T05:44:49.345Z,62.99
2019-04-27T05:47:19.281Z,62.88
2019-04-27T05:49:48.535Z,64.06
2019-04-27T05:52:29.777Z,65.67
2019-04-27T05:54:59.088Z,67.35
2019-04-27T05:57:30.836Z,66.64
2019-04-27T05:59:58.889Z,66.69
2019-04-27T06:02:30.231Z,67.26
2019-04-27T06:05:00.011Z,68.53
2019-04-27T06:07:29.709Z,69.39
2019-04-27T06:09:59.786Z,70.78
2019-04-27T06:12:29.639Z,71.59
2019-04-27T06:14:59.865Z,72.30
2019-04-27T06:17:29.823Z,73.54
2019-04-27T06:19:59.651Z,73.90
2019-04-27T06:22:29.175Z,73.94
2019-04-27T06:24:59.697Z,73.82
2019-04-27T06:27:30.551Z,73.84
2019-04-27T06:29:59.355Z,73.85
2019-04-27T06:32:29.635Z,73.87
2019-04-27T06:34:59.043Z,74.10
2019-04-27T06:37:29.410Z,74.20
2019-04-27T06:39:59.641Z,74.10
2019-04-27T06:42:29.695Z,74.65
2019-04-27T06:44:59.970Z,75.22
2019-04-27T06:47:29.463Z,75.35
2019-04-27T06:49:58.763Z,75.26
2019-04-27T06:52:28.936Z,75.70
2019-04-27T06:55:00.540Z,75.48
2019-04-27T06:57:29.148Z,75.50
2019-04-27T06:59:59.157Z,75.76
2019-04-27T07:02:29.106Z,76.06
2019-04-27T07:04:59.146Z,76.70
2019-04-27T07:07:29.289Z,76.19
2019-04-27T07:09:59.023Z,76.37
2019-04-27T07:12:28.765Z,76.65
2019-04-27T07:14:59.307Z,75.78
2019-04-27T07:17:28.982Z,76.13
2019-04-27T07:19:59.233Z,76.43
2019-04-27T07:22:27.405Z,76.39
2019-04-27T07:24:56.039Z,76.28
2019-04-27T07:27:24.327Z,75.95
2019-04-27T07:29:53.697Z,75.75
2019-04-27T07:32:22.400Z,76.21
2019-04-27T07:34:50.695Z,76.07
2019-04-27T07:37:19.640Z,76.40
2019-04-27T07:39:49.222Z,76.98
2019-04-27T07:42:17.582Z,77.37
2019-04-27T07:44:47.777Z,77.91
2019-04-27T07:47:19.483Z,78.51
2019-04-27T07:49:49.700Z,78.91
2019-04-27T07:52:18.962Z,79.43
2019-04-27T07:54:49.222Z,80.36
2019-04-27T07:57:19.442Z,80.90
2019-04-27T07:59:49.875Z,81.58
2019-04-27T08:02:19.007Z,82.42
2019-04-27T08:04:48.505Z,82.93
2019-04-27T08:07:19.650Z,83.73
2019-04-27T08:09:49.670Z,83.96
2019-04-27T08:12:18.572Z,83.87
2019-04-27T08:14:49.075Z,83.78
2019-04-27T08:17:19.183Z,84.04
2019-04-27T08:19:49.375Z,84.56
2019-04-27T08:22:19.309Z,84.90
2019-04-27T08:24:49.605Z,84.85
2019-04-27T08:27:31.619Z,85.21
2019-04-27T08:30:09.341Z,85.26
2019-04-27T08:32:41.349Z,85.47
2019-04-27T08:35:09.591Z,85.46
2019-04-27T08:37:38.632Z,85.24
2019-04-27T08:40:09.310Z,85.32
2019-04-27T08:42:39.140Z,85.05
2019-04-27T08:45:09.422Z,85.01
2019-04-27T08:47:39.466Z,85.19
2019-04-27T08:50:09.099Z,85.30
2019-04-27T08:52:41.493Z,85.63
2019-04-27T08:55:09.529Z,86.02
2019-04-27T08:57:38.804Z,86.28
2019-04-27T09:00:10.767Z,86.23
2019-04-27T09:02:44.805Z,86.16
2019-04-27T09:05:09.726Z,86.05
2019-04-27T09:07:39.877Z,86.08
2019-04-27T09:10:10.349Z,86.12
2019-04-27T09:12:50.091Z,85.69
2019-04-27T09:15:20.414Z,85.14
2019-04-27T09:17:50.325Z,84.54
2019-04-27T09:20:20.589Z,84.81
2019-04-27T09:22:49.354Z,84.75
2019-04-27T09:25:19.295Z,84.47
2019-04-27T09:27:49.300Z,84.15
2019-04-27T09:30:19.082Z,84.27
2019-04-27T09:32:47.484Z,84.46
2019-04-27T09:35:16.210Z,84.23
2019-04-27T09:37:45.888Z,83.54
2019-04-27T09:40:14.375Z,83.40
2019-04-27T09:42:42.686Z,83.70
2019-04-27T09:45:11.029Z,83.85
2019-04-27T09:47:39.603Z,83.55
2019-04-27T09:50:08.607Z,83.43
2019-04-27T09:52:37.178Z,83.83
2019-04-27T09:55:06.693Z,83.86
2019-04-27T09:57:36.514Z,84.01
2019-04-27T10:00:09.540Z,84.32
2019-04-27T10:02:37.836Z,84.92
2019-04-27T10:05:06.880Z,85.30
2019-04-27T10:07:35.877Z,85.42
2019-04-27T10:10:07.349Z,85.95
2019-04-27T10:12:36.831Z,86.60
2019-04-27T10:15:06.487Z,86.54
2019-04-27T10:17:34.860Z,86.96
2019-04-27T10:20:03.629Z,87.44
2019-04-27T10:22:41.125Z,87.61
2019-04-27T10:25:02.031Z,87.64
2019-04-27T10:27:30.582Z,87.58
2019-04-27T10:29:58.888Z,87.38
2019-04-27T10:32:27.639Z,86.92
2019-04-27T10:34:56.020Z,85.91
2019-04-27T10:37:24.601Z,85.52
2019-04-27T10:39:52.898Z,84.95
2019-04-27T10:42:21.195Z,84.79
2019-04-27T10:44:49.491Z,84.69
2019-04-27T10:47:18.120Z,85.01
2019-04-27T10:49:48.389Z,85.33
2019-04-27T10:52:16.719Z,85.25
2019-04-27T10:54:45.987Z,85.32
2019-04-27T10:57:15.839Z,84.79
2019-04-27T10:59:46.041Z,83.70
2019-04-27T11:02:14.409Z,82.66
2019-04-27T11:04:47.314Z,82.19
2019-04-27T11:07:17.247Z,81.29
2019-04-27T11:09:45.534Z,78.77
2019-04-27T11:12:15.716Z,80.82
2019-04-27T11:14:44.416Z,81.52
2019-04-27T11:17:12.724Z,83.20
2019-04-27T11:19:41.024Z,84.31
2019-04-27T11:22:09.391Z,85.02
2019-04-27T11:24:37.954Z,85.31
2019-04-27T11:27:06.228Z,85.35
2019-04-27T11:29:36.041Z,84.68
2019-04-27T11:32:05.775Z,85.60
2019-04-27T11:34:51.877Z,86.01
2019-04-27T11:37:22.136Z,85.71
2019-04-27T11:39:50.429Z,85.22
2019-04-27T11:42:18.834Z,84.56
2019-04-27T11:44:47.170Z,83.90
2019-04-27T11:47:16.228Z,82.84
2019-04-27T11:49:45.687Z,82.22
2019-04-27T11:52:15.667Z,83.23
2019-04-27T11:54:45.646Z,83.04
2019-04-27T11:57:14.081Z,81.73
2019-04-27T11:59:42.386Z,81.84
2019-04-27T12:02:10.802Z,81.66
2019-04-27T12:04:39.083Z,81.74
2019-04-27T12:07:07.735Z,81.81
2019-04-27T12:09:36.027Z,81.02
2019-04-27T12:12:15.097Z,80.98
2019-04-27T12:14:34.406Z,80.66
2019-04-27T12:17:02.789Z,80.33
2019-04-27T12:19:31.430Z,79.14
2019-04-27T12:21:59.711Z,78.96
2019-04-27T12:24:28.112Z,79.03
2019-04-27T12:27:06.979Z,78.87
2019-04-27T12:29:53.333Z,78.58
2019-04-27T12:32:22.189Z,77.99
2019-04-27T12:34:51.203Z,78.02
2019-04-27T12:37:19.794Z,78.77
2019-04-27T12:39:48.357Z,79.15
2019-04-27T12:42:16.949Z,78.43
2019-04-27T12:44:45.476Z,79.02
2019-04-27T12:47:13.880Z,76.26
2019-04-27T12:49:42.436Z,78.93
2019-04-27T12:52:10.735Z,78.86
2019-04-27T12:54:43.245Z,79.82
2019-04-27T12:57:20.882Z,80.19
2019-04-27T13:00:03.388Z,80.99
2019-04-27T13:03:28.926Z,81.84
2019-04-27T13:05:57.291Z,81.88
2019-04-27T13:08:26.138Z,81.78
2019-04-27T13:10:55.698Z,80.72
2019-04-27T13:13:26.673Z,81.02
2019-04-27T13:15:56.329Z,80.87
2019-04-27T13:18:25.820Z,80.68
2019-04-27T13:20:54.288Z,79.46
2019-04-27T13:23:22.576Z,78.36
2019-04-27T13:25:50.881Z,78.17
2019-04-27T13:28:19.627Z,76.25
2019-04-27T13:30:47.924Z,75.89
2019-04-27T13:33:17.513Z,75.51
2019-04-27T13:35:45.896Z,75.59
2019-04-27T13:38:17.841Z,74.96
2019-04-27T13:40:45.866Z,74.67
2019-04-27T13:43:22.488Z,74.67
2019-04-27T13:45:52.450Z,74.03
2019-04-27T13:48:26.108Z,73.25
2019-04-27T13:50:57.279Z,73.30
2019-04-27T13:53:26.238Z,73.93
2019-04-27T13:55:56.632Z,73.02
2019-04-27T13:58:24.668Z,72.67
2019-04-27T14:00:52.967Z,72.21
2019-04-27T14:03:21.283Z,73.23
2019-04-27T14:05:49.577Z,73.10
2019-04-27T14:08:17.894Z,73.50
2019-04-27T14:10:46.645Z,74.02
2019-04-27T14:13:17.505Z,72.22
2019-04-27T14:15:44.989Z,71.92
2019-04-27T14:18:13.300Z,71.85
2019-04-27T14:20:41.573Z,69.21
2019-04-27T14:23:14.189Z,69.60
2019-04-27T14:25:42.472Z,68.48
2019-04-27T14:28:10.840Z,68.46
2019-04-27T14:30:40.031Z,67.15
2019-04-27T14:33:08.563Z,67.52
2019-04-27T14:35:36.887Z,68.57
2019-04-27T14:38:05.310Z,67.73
2019-04-27T14:40:33.893Z,64.65
2019-04-27T14:43:02.178Z,64.14
2019-04-27T14:45:30.493Z,64.59
2019-04-27T14:47:58.790Z,63.07
2019-04-27T14:50:27.086Z,62.89
2019-04-27T14:52:55.619Z,63.44
2019-04-27T14:55:23.918Z,62.70
2019-04-27T14:57:52.230Z,62.18
2019-04-27T15:00:21.723Z,62.70
2019-04-27T15:02:50.372Z,63.07
2019-04-27T15:05:18.729Z,63.14
2019-04-27T15:07:47.026Z,62.79
2019-04-27T15:10:16.199Z,62.38
2019-04-27T15:12:44.715Z,61.50
2019-04-27T15:15:13.387Z,61.31
2019-04-27T15:17:41.715Z,62.01
2019-04-27T15:20:12.165Z,62.74
2019-04-27T15:22:40.531Z,63.82
2019-04-27T15:25:13.665Z,63.26
2019-04-27T15:27:42.346Z,63.77
2019-04-27T15:30:14.368Z,64.27
2019-04-27T15:32:52.996Z,64.49
2019-04-27T15:35:35.435Z,64.31
2019-04-27T15:38:15.954Z,62.51
2019-04-27T15:41:01.810Z,62.85
2019-04-27T15:43:31.761Z,61.80
2019-04-27T15:46:00.190Z,60.54
2019-04-27T15:48:30.667Z,61.28
2019-04-27T15:51:02.856Z,61.26
2019-04-27T15:53:28.911Z,61.57
2019-04-27T15:55:59.996Z,62.66
2019-04-27T15:58:28.386Z,62.20
2019-04-27T16:01:02.388Z,62.70
2019-04-27T16:03:31.265Z,63.88
2019-04-27T16:05:58.857Z,61.04
2019-04-27T16:08:28.842Z,61.00
2019-04-27T16:10:58.822Z,60.11
2019-04-27T16:13:32.954Z,61.97
2019-04-27T16:15:58.410Z,61.95
2019-04-27T16:18:31.071Z,63.86
2019-04-27T16:20:58.627Z,65.86
2019-04-27T16:23:28.262Z,68.07
2019-04-27T16:25:58.207Z,69.44
2019-04-27T16:28:26.824Z,70.82
2019-04-27T16:30:55.123Z,71.78
2019-04-27T16:33:23.667Z,72.44
2019-04-27T16:35:53.112Z,73.48
2019-04-27T16:38:26.703Z,74.38
2019-04-27T16:40:54.707Z,74.90
2019-04-27T16:43:30.241Z,75.58
2019-04-27T16:45:57.856Z,75.84
2019-04-27T16:48:28.092Z,76.28
2019-04-27T16:50:55.176Z,76.84
2019-04-27T16:53:23.886Z,76.23
2019-04-27T16:56:01.553Z,75.73
2019-04-27T16:58:24.543Z,75.62
2019-04-27T17:00:52.869Z,75.95
2019-04-27T17:03:21.220Z,75.54
2019-04-27T17:05:49.537Z,75.88
2019-04-27T17:08:22.153Z,75.59
2019-04-27T17:10:47.926Z,75.72
2019-04-27T17:13:16.405Z,75.82
2019-04-27T17:16:04.361Z,75.59
2019-04-27T17:18:34.622Z,74.87
2019-04-27T17:21:16.059Z,74.29
2019-04-27T17:23:33.613Z,74.23
2019-04-27T17:26:06.221Z,73.80
2019-04-27T17:28:39.724Z,72.53
2019-04-27T17:31:08.763Z,73.18
2019-04-27T17:36:19.363Z,73.25
2019-04-27T17:38:50.832Z,73.34
2019-04-27T17:41:18.377Z,73.83
2019-04-27T17:43:48.155Z,73.91
2019-04-27T17:46:16.769Z,72.65
2019-04-27T17:48:45.330Z,72.54
2019-04-27T17:51:14.027Z,72.68
2019-04-27T17:53:42.608Z,72.66
2019-04-27T17:56:10.905Z,72.38
2019-04-27T17:58:40.817Z,72.66
2019-04-27T18:01:13.980Z,72.95
2019-04-27T18:03:40.815Z,72.94
2019-04-27T18:06:09.437Z,73.50
2019-04-27T18:08:40.262Z,73.75
2019-04-27T18:11:08.752Z,73.97
2019-04-27T18:13:38.835Z,73.50
2019-04-27T18:16:09.004Z,73.74
2019-04-27T18:19:00.058Z,74.14
2019-04-27T18:21:28.879Z,74.26
2019-04-27T18:24:01.460Z,74.87
2019-04-27T18:26:30.488Z,75.30
2019-04-27T18:31:34.466Z,76.76
2019-04-27T18:34:02.734Z,77.75
2019-04-27T18:36:31.046Z,78.17
2019-04-27T18:38:59.643Z,79.07
2019-04-27T18:41:28.782Z,79.31
2019-04-27T18:43:59.932Z,79.32
2019-04-27T18:46:28.311Z,79.50
2019-04-27T18:48:58.590Z,78.24
2019-04-27T18:51:28.839Z,79.99
2019-04-27T18:53:59.749Z,79.87
2019-04-27T18:56:29.053Z,81.25
2019-04-27T18:58:58.026Z,81.89
2019-04-27T19:01:28.919Z,82.03
2019-04-27T19:03:58.586Z,82.66
2019-04-27T19:06:28.898Z,83.18
2019-04-27T19:08:59.033Z,83.57
2019-04-27T19:11:28.962Z,83.78
2019-04-27T19:13:59.068Z,84.12
2019-04-27T19:16:29.117Z,84.29
2019-04-27T19:18:58.384Z,84.58
2019-04-27T19:21:28.797Z,84.90
2019-04-27T19:23:58.472Z,85.15
2019-04-27T19:26:38.241Z,85.71
2019-04-27T19:29:11.108Z,86.05
2019-04-27T19:31:50.223Z,86.14
2019-04-27T19:34:18.648Z,86.31
2019-04-27T19:36:48.834Z,86.25
2019-04-27T19:39:18.073Z,86.42
2019-04-27T19:41:57.022Z,86.29
2019-04-27T19:44:18.547Z,86.44
2019-04-27T19:46:49.028Z,86.49
2019-04-27T19:49:16.811Z,86.67
2019-04-27T19:51:45.101Z,86.64
2019-04-27T19:54:13.384Z,86.73
2019-04-27T19:56:41.710Z,86.84
2019-04-27T19:59:14.380Z,86.97
2019-04-27T20:01:44.375Z,87.18
2019-04-27T20:04:14.303Z,87.30
2019-04-27T20:06:42.866Z,87.57
2019-04-27T20:09:29.122Z,87.86
2019-04-27T20:11:57.546Z,88.14
2019-04-27T20:14:25.861Z,88.40
2019-04-27T20:16:54.173Z,88.51
2019-04-27T20:19:22.464Z,88.66
2019-04-27T20:21:50.964Z,88.72
2019-04-27T20:24:19.324Z,88.85
2019-04-27T20:26:47.690Z,89.03
2019-04-27T20:29:16.002Z,89.10
2019-04-27T20:31:44.335Z,89.16
2019-04-27T20:34:12.668Z,89.24
2019-04-27T20:36:41.493Z,89.30
2019-04-27T20:39:11.771Z,89.41
2019-04-27T20:41:41.074Z,89.59
2019-04-27T20:44:12.294Z,89.65
2019-04-27T20:46:41.338Z,89.73
2019-04-27T20:49:13.942Z,89.74
2019-04-27T20:51:50.953Z,89.77
2019-04-27T20:54:21.422Z,89.76
2019-04-27T20:56:51.606Z,89.81
2019-04-27T20:59:21.950Z,89.93
2019-04-27T21:01:49.980Z,89.92
2019-04-27T21:04:20.977Z,89.91
2019-04-27T21:06:51.110Z,89.93
2019-04-27T21:09:21.254Z,90.01
2019-04-27T21:11:49.727Z,89.92
2019-04-27T21:14:18.089Z,89.80
2019-04-27T21:16:46.900Z,89.82
2019-04-27T21:19:15.519Z,89.80
2019-04-27T21:21:43.827Z,89.85
2019-04-27T21:24:12.209Z,89.89
2019-04-27T21:26:41.921Z,89.84
2019-04-27T21:29:12.051Z,89.91
2019-04-27T21:31:41.822Z,90.09
2019-04-27T21:34:10.624Z,90.23
2019-04-27T21:36:42.252Z,90.25
2019-04-27T21:39:09.051Z,90.26
2019-04-27T21:41:37.345Z,90.41
2019-04-27T21:44:05.722Z,90.50
2019-04-27T21:46:34.914Z,90.57
2019-04-27T21:49:03.553Z,90.58
2019-04-27T21:51:33.614Z,90.49
2019-04-27T21:54:03.562Z,90.57
2019-04-27T21:56:31.855Z,90.61
2019-04-27T21:59:01.015Z,90.66
2019-04-27T22:01:31.837Z,90.61
2019-04-27T22:04:02.667Z,90.63
2019-04-27T22:06:30.959Z,90.70
2019-04-27T22:09:01.316Z,90.74
2019-04-27T22:11:31.775Z,90.62
2019-04-27T22:14:01.478Z,90.64
2019-04-27T22:16:31.475Z,90.72
2019-04-27T22:19:01.797Z,90.80
2019-04-27T22:21:31.580Z,90.75
2019-04-27T22:24:01.624Z,90.65
2019-04-27T22:26:31.461Z,90.64
2019-04-27T22:29:01.481Z,90.79
2019-04-27T22:31:31.353Z,90.94
2019-04-27T22:34:01.744Z,91.01
2019-04-27T22:36:31.310Z,91.04
2019-04-27T22:39:01.630Z,90.95
2019-04-27T22:41:43.885Z,90.94
2019-04-27T22:44:13.819Z,90.93
2019-04-27T22:46:43.755Z,90.94
2019-04-27T22:49:12.129Z,90.88
2019-04-27T22:51:41.210Z,90.93
2019-04-27T22:54:11.594Z,90.88
2019-04-27T22:56:42.259Z,90.99
2019-04-27T22:59:15.202Z,91.05
2019-04-27T23:01:45.107Z,90.98
2019-04-27T23:04:18.033Z,90.92
2019-04-27T23:06:46.316Z,91.01
2019-04-27T23:09:14.767Z,90.90
2019-04-27T23:11:43.122Z,90.86
2019-04-27T23:14:11.425Z,90.74
2019-04-27T23:16:42.126Z,90.60
2019-04-27T23:19:10.930Z,90.58
2019-04-27T23:21:39.307Z,90.54
2019-04-27T23:24:07.624Z,90.59
2019-04-27T23:26:35.907Z,90.46
2019-04-27T23:29:13.005Z,90.47
2019-04-27T23:31:36.339Z,90.46
2019-04-27T23:34:04.675Z,90.35
2019-04-27T23:36:32.986Z,90.26
2019-04-27T23:39:01.336Z,90.16
2019-04-27T23:41:29.718Z,90.02
2019-04-27T23:43:57.989Z,89.91
2019-04-27T23:46:26.303Z,89.88
2019-04-27T23:48:54.574Z,89.88
2019-04-27T23:51:24.518Z,89.70
2019-04-27T23:53:52.798Z,89.54
2019-04-27T23:56:22.551Z,89.39
2019-04-27T23:58:50.881Z,89.27
